createdAt,value
2023-09-21T00:01:21.002Z,19.10
2023-09-21T00:03:50.529Z,19.10
2023-09-21T00:06:19.968Z,19.10
2023-09-21T00:08:51.238Z,19.10
2023-09-21T00:11:20.029Z,19.10
2023-09-21T00:13:48.371Z,19.10
2023-09-21T00:16:19.447Z,19.10
2023-09-21T00:18:48.588Z,19.10
2023-09-21T00:21:17.369Z,19.10
2023-09-21T00:23:48.919Z,19.10
2023-09-21T00:26:19.726Z,19.20
2023-09-21T00:28:49.585Z,19.10
2023-09-21T00:31:17.647Z,19.10
2023-09-21T00:33:46.047Z,19.10
2023-09-21T00:36:18.811Z,19.10
2023-09-21T00:38:48.206Z,19.10
2023-09-21T00:41:18.863Z,19.10
2023-09-21T00:43:46.995Z,19.10
2023-09-21T00:46:15.993Z,19.10
2023-09-21T00:48:45.532Z,19.00
2023-09-21T00:51:15.575Z,19.00
2023-09-21T00:53:46.731Z,19.00
2023-09-21T00:56:19.089Z,19.00
2023-09-21T00:58:52.011Z,19.00
2023-09-21T01:01:29.337Z,18.90
2023-09-21T01:04:00.654Z,18.90
2023-09-21T01:06:29.295Z,18.90
2023-09-21T01:08:58.001Z,18.80
2023-09-21T01:11:26.766Z,18.80
2023-09-21T01:13:57.123Z,18.80
2023-09-21T01:16:25.914Z,18.70
2023-09-21T01:18:55.151Z,18.70
2023-09-21T01:21:32.764Z,18.70
2023-09-21T01:24:02.350Z,18.70
2023-09-21T01:26:31.004Z,18.70
2023-09-21T01:28:59.840Z,18.70
2023-09-21T01:31:28.295Z,18.60
2023-09-21T01:33:56.360Z,18.60
2023-09-21T01:36:24.779Z,18.60
2023-09-21T01:38:53.977Z,18.60
2023-09-21T01:41:23.816Z,18.60
2023-09-21T01:43:52.005Z,18.60
2023-09-21T01:46:23.297Z,18.60
2023-09-21T01:48:53.557Z,18.60
2023-09-21T01:51:22.554Z,18.60
2023-09-21T01:53:50.879Z,18.50
2023-09-21T01:56:19.552Z,18.50
2023-09-21T01:58:50.334Z,18.50
2023-09-21T02:01:19.769Z,18.50
2023-09-21T02:03:48.210Z,18.50
2023-09-21T02:06:16.655Z,18.40
2023-09-21T02:08:45.708Z,18.40
2023-09-21T02:11:14.838Z,18.40
2023-09-21T02:13:43.079Z,18.40
2023-09-21T02:16:16.212Z,18.40
2023-09-21T02:18:46.309Z,18.30
2023-09-21T02:21:18.877Z,18.30
2023-09-21T02:23:47.416Z,18.30
2023-09-21T02:26:16.912Z,18.30
2023-09-21T02:28:45.126Z,18.30
2023-09-21T02:31:14.734Z,18.30
2023-09-21T02:33:44.493Z,18.30
2023-09-21T02:36:20.644Z,18.30
2023-09-21T02:38:50.194Z,18.30
2023-09-21T02:41:18.804Z,18.30
2023-09-21T02:43:47.471Z,18.30
2023-09-21T02:46:16.815Z,18.40
2023-09-21T02:48:46.595Z,18.40
2023-09-21T02:51:16.072Z,18.40
2023-09-21T02:53:45.446Z,18.40
2023-09-21T02:56:13.757Z,18.40
2023-09-21T02:58:43.289Z,18.40
2023-09-21T03:01:13.204Z,18.40
2023-09-21T03:03:42.926Z,18.40
2023-09-21T03:06:13.878Z,18.40
2023-09-21T03:08:43.436Z,18.40
2023-09-21T03:11:12.503Z,18.40
2023-09-21T03:13:40.738Z,18.40
2023-09-21T03:16:14.397Z,18.40
2023-09-21T03:18:48.037Z,18.30
2023-09-21T03:21:17.335Z,18.30
2023-09-21T03:23:47.744Z,18.30
2023-09-21T03:26:16.765Z,18.40
2023-09-21T03:28:46.431Z,18.40
2023-09-21T03:31:17.970Z,18.40
2023-09-21T03:33:48.429Z,18.30
2023-09-21T03:36:18.087Z,18.40
2023-09-21T03:38:49.010Z,18.40
2023-09-21T03:41:17.520Z,18.40
2023-09-21T03:43:45.614Z,18.40
2023-09-21T03:46:13.803Z,18.30
2023-09-21T03:48:42.211Z,18.30
2023-09-21T03:51:13.780Z,18.30
2023-09-21T03:53:42.319Z,18.30
2023-09-21T03:56:11.169Z,18.20
2023-09-21T03:58:39.251Z,18.20
2023-09-21T04:01:08.066Z,18.20
2023-09-21T04:03:36.426Z,18.10
2023-09-21T04:06:06.759Z,18.10
2023-09-21T04:08:36.738Z,18.10
2023-09-21T04:11:04.682Z,18.10
2023-09-21T04:13:32.613Z,18.10
2023-09-21T04:16:00.765Z,18.10
2023-09-21T04:18:28.843Z,18.10
2023-09-21T04:21:16.449Z,18.10
2023-09-21T04:23:47.110Z,18.10
2023-09-21T04:26:19.349Z,18.10
2023-09-21T04:28:49.320Z,18.10
2023-09-21T04:31:17.798Z,18.00
2023-09-21T04:33:46.326Z,18.00
2023-09-21T04:36:15.139Z,18.00
2023-09-21T04:38:43.666Z,18.00
2023-09-21T04:41:16.871Z,18.00
2023-09-21T04:43:45.244Z,18.00
2023-09-21T04:46:14.874Z,18.00
2023-09-21T04:48:43.771Z,18.00
2023-09-21T04:51:15.473Z,18.00
2023-09-21T04:53:43.828Z,18.00
2023-09-21T04:56:12.502Z,17.90
2023-09-21T04:58:42.461Z,17.90
2023-09-21T05:01:12.054Z,17.90
2023-09-21T05:03:40.837Z,17.90
2023-09-21T05:06:09.256Z,17.90
2023-09-21T05:08:37.884Z,18.00
2023-09-21T05:11:06.941Z,17.90
2023-09-21T05:13:35.217Z,18.00
2023-09-21T05:16:05.689Z,17.90
2023-09-21T05:18:33.947Z,17.90
2023-09-21T05:21:05.800Z,18.00
2023-09-21T05:23:35.450Z,17.90
2023-09-21T05:26:04.331Z,17.90
2023-09-21T05:28:32.749Z,17.90
2023-09-21T05:31:01.501Z,17.90
2023-09-21T05:33:32.343Z,17.90
2023-09-21T05:36:06.058Z,18.00
2023-09-21T05:38:34.689Z,18.00
2023-09-21T05:41:04.846Z,18.00
2023-09-21T05:43:33.166Z,18.10
2023-09-21T05:46:01.441Z,18.20
2023-09-21T05:48:31.056Z,18.20
2023-09-21T05:51:00.660Z,18.10
2023-09-21T05:53:28.976Z,18.10
2023-09-21T05:55:59.143Z,18.10
2023-09-21T05:58:27.286Z,18.10
2023-09-21T06:00:55.360Z,18.10
2023-09-21T06:03:24.501Z,17.90
2023-09-21T06:05:54.282Z,17.80
2023-09-21T06:08:22.834Z,17.80
2023-09-21T06:10:51.374Z,17.70
2023-09-21T06:13:19.668Z,17.70
2023-09-21T06:15:48.173Z,17.70
2023-09-21T06:18:18.701Z,17.60
2023-09-21T06:20:47.288Z,17.70
2023-09-21T06:23:18.808Z,17.70
2023-09-21T06:25:47.301Z,17.60
2023-09-21T06:28:16.794Z,17.60
2023-09-21T06:30:46.101Z,17.60
2023-09-21T06:33:14.942Z,17.60
2023-09-21T06:35:43.694Z,17.60
2023-09-21T06:38:12.122Z,17.60
2023-09-21T06:40:41.731Z,17.60
2023-09-21T06:43:09.839Z,17.60
2023-09-21T06:45:38.098Z,17.60
2023-09-21T06:48:06.844Z,17.60
2023-09-21T06:50:35.115Z,17.60
2023-09-21T06:53:03.211Z,17.50
2023-09-21T06:55:31.586Z,17.60
2023-09-21T06:58:01.035Z,17.60
2023-09-21T07:00:29.169Z,17.60
2023-09-21T07:02:57.277Z,17.60
2023-09-21T07:05:25.421Z,17.50
2023-09-21T07:07:55.143Z,17.60
2023-09-21T07:10:23.475Z,17.60
2023-09-21T07:12:51.790Z,17.50
2023-09-21T07:15:22.930Z,17.40
2023-09-21T07:17:51.760Z,17.40
2023-09-21T07:20:24.818Z,17.40
2023-09-21T07:22:52.901Z,17.40
2023-09-21T07:25:21.362Z,17.30
2023-09-21T07:27:49.782Z,17.30
2023-09-21T07:30:17.935Z,17.30
2023-09-21T07:32:47.557Z,17.20
2023-09-21T07:35:16.439Z,16.90
2023-09-21T07:37:47.468Z,16.60
2023-09-21T07:40:16.211Z,16.50
2023-09-21T07:42:46.628Z,16.40
2023-09-21T07:45:14.691Z,16.30
2023-09-21T07:47:44.044Z,16.20
2023-09-21T07:50:13.769Z,16.20
2023-09-21T07:52:41.908Z,16.20
2023-09-21T07:55:11.297Z,16.20
2023-09-21T07:57:41.232Z,16.10
2023-09-21T08:00:11.625Z,16.20
2023-09-21T08:02:39.836Z,16.20
2023-09-21T08:05:11.370Z,16.10
2023-09-21T08:07:41.560Z,16.10
2023-09-21T08:10:12.223Z,16.10
2023-09-21T08:12:42.586Z,16.20
2023-09-21T08:15:12.946Z,16.30
2023-09-21T08:17:41.392Z,16.30
2023-09-21T08:20:11.426Z,16.30
2023-09-21T08:22:41.269Z,16.30
2023-09-21T08:25:09.920Z,16.20
2023-09-21T08:27:41.050Z,16.30
2023-09-21T08:30:10.571Z,16.40
2023-09-21T08:32:40.983Z,16.30
2023-09-21T08:35:10.171Z,16.30
2023-09-21T08:37:38.612Z,16.20
2023-09-21T08:40:10.091Z,16.20
2023-09-21T08:42:39.470Z,16.20
2023-09-21T08:45:09.570Z,16.10
2023-09-21T08:47:39.834Z,16.20
2023-09-21T08:50:10.109Z,16.30
2023-09-21T08:52:38.345Z,16.30
2023-09-21T08:55:12.257Z,16.40
2023-09-21T08:57:40.719Z,16.30
2023-09-21T09:00:10.674Z,16.20
2023-09-21T09:02:39.521Z,16.40
2023-09-21T09:05:09.115Z,16.30
2023-09-21T09:07:41.526Z,16.40
2023-09-21T09:10:12.889Z,16.40
2023-09-21T09:12:42.827Z,16.10
2023-09-21T09:15:12.132Z,16.10
2023-09-21T09:17:41.522Z,16.00
2023-09-21T09:20:10.719Z,16.00
2023-09-21T09:22:39.819Z,15.90
2023-09-21T09:25:11.925Z,15.90
2023-09-21T09:27:43.176Z,16.00
2023-09-21T09:30:14.101Z,16.00
2023-09-21T09:32:43.032Z,15.80
2023-09-21T09:35:14.795Z,15.70
2023-09-21T09:37:44.482Z,15.60
2023-09-21T09:40:20.261Z,15.60
2023-09-21T09:42:50.236Z,15.50
2023-09-21T09:45:20.960Z,15.70
2023-09-21T09:47:56.714Z,15.90
2023-09-21T09:50:26.462Z,16.10
2023-09-21T09:53:06.276Z,15.90
2023-09-21T09:55:37.692Z,15.80
2023-09-21T09:58:07.685Z,15.90
2023-09-21T10:00:36.924Z,15.90
2023-09-21T10:03:06.857Z,15.70
2023-09-21T10:05:37.189Z,15.70
2023-09-21T10:08:08.915Z,15.80
2023-09-21T10:10:46.223Z,15.70
2023-09-21T10:13:14.819Z,15.80
2023-09-21T10:15:44.598Z,15.90
2023-09-21T10:18:12.879Z,15.90
2023-09-21T10:20:41.124Z,15.90
2023-09-21T10:23:12.500Z,16.00
2023-09-21T10:25:46.465Z,16.10
2023-09-21T10:28:40.222Z,16.20
2023-09-21T10:31:26.195Z,16.20
2023-09-21T10:34:09.671Z,16.20
2023-09-21T10:36:43.651Z,16.20
2023-09-21T10:39:31.038Z,16.10
2023-09-21T10:42:38.560Z,16.20
2023-09-21T10:45:11.186Z,16.20
2023-09-21T10:47:49.517Z,16.10
2023-09-21T10:50:19.031Z,16.20
2023-09-21T10:52:49.663Z,16.10
2023-09-21T10:55:18.934Z,16.20
2023-09-21T10:57:50.114Z,16.20
2023-09-21T11:00:20.287Z,16.20
2023-09-21T11:02:51.082Z,16.20
2023-09-21T11:05:21.298Z,16.00
2023-09-21T11:07:51.992Z,16.00
2023-09-21T11:10:20.028Z,16.00
2023-09-21T11:12:50.183Z,16.10
2023-09-21T11:15:19.569Z,16.00
2023-09-21T11:17:49.389Z,16.10
2023-09-21T11:20:21.080Z,16.10
2023-09-21T11:22:50.608Z,15.90
2023-09-21T11:25:22.303Z,16.00
2023-09-21T11:27:54.424Z,16.00
2023-09-21T11:30:27.139Z,15.90
2023-09-21T11:32:56.897Z,16.10
2023-09-21T11:35:25.704Z,16.30
2023-09-21T11:37:53.874Z,16.40
2023-09-21T11:40:24.513Z,16.40
2023-09-21T11:43:01.361Z,16.40
2023-09-21T11:45:29.819Z,16.50
2023-09-21T11:48:00.322Z,16.50
2023-09-21T11:50:31.935Z,16.50
2023-09-21T11:53:00.466Z,16.50
2023-09-21T11:55:29.825Z,16.30
2023-09-21T11:58:09.357Z,16.30
2023-09-21T12:00:51.318Z,16.30
2023-09-21T12:03:23.707Z,16.30
2023-09-21T12:05:53.095Z,16.30
2023-09-21T12:08:22.696Z,16.40
2023-09-21T12:10:53.846Z,16.30
2023-09-21T12:13:25.217Z,16.20
2023-09-21T12:15:57.833Z,16.30
2023-09-21T12:18:30.180Z,16.10
2023-09-21T12:20:59.526Z,15.90
2023-09-21T12:23:28.403Z,15.90
2023-09-21T12:25:56.709Z,16.00
2023-09-21T12:28:26.186Z,15.90
2023-09-21T12:30:56.055Z,15.90
2023-09-21T12:35:56.010Z,16.10
2023-09-21T12:38:24.137Z,16.10
2023-09-21T12:40:54.266Z,16.10
2023-09-21T12:43:22.828Z,16.10
2023-09-21T12:45:52.205Z,16.00
2023-09-21T12:48:20.349Z,16.20
2023-09-21T12:50:48.893Z,16.20
2023-09-21T12:53:16.972Z,16.20
2023-09-21T12:55:45.402Z,16.20
2023-09-21T12:58:13.995Z,16.30
2023-09-21T13:00:42.707Z,16.20
2023-09-21T13:03:14.026Z,16.20
2023-09-21T13:05:45.088Z,16.20
2023-09-21T13:08:14.271Z,16.30
2023-09-21T13:10:42.276Z,16.40
2023-09-21T13:13:12.760Z,16.20
2023-09-21T13:15:41.610Z,16.30
2023-09-21T13:18:12.324Z,16.50
2023-09-21T13:20:40.650Z,16.60
2023-09-21T13:23:08.764Z,16.50
2023-09-21T13:25:37.142Z,16.50
2023-09-21T13:28:06.198Z,16.30
2023-09-21T13:30:35.045Z,16.40
2023-09-21T13:33:04.002Z,16.30
2023-09-21T13:35:35.875Z,16.60
2023-09-21T13:38:04.127Z,16.40
2023-09-21T13:40:32.171Z,16.40
2023-09-21T13:43:02.127Z,16.50
2023-09-21T13:45:30.656Z,16.40
2023-09-21T13:47:59.102Z,16.20
2023-09-21T13:50:29.911Z,16.30
2023-09-21T13:53:00.026Z,16.30
2023-09-21T13:55:28.387Z,16.40
2023-09-21T13:57:56.363Z,16.40
2023-09-21T14:00:26.032Z,16.20
2023-09-21T14:02:55.409Z,16.30
2023-09-21T14:05:24.357Z,16.30
2023-09-21T14:07:52.739Z,16.40
2023-09-21T14:10:22.187Z,16.30
2023-09-21T14:12:51.897Z,16.30
2023-09-21T14:15:22.412Z,16.30
2023-09-21T14:17:50.789Z,16.30
2023-09-21T14:20:20.390Z,16.30
2023-09-21T14:22:48.467Z,16.30
2023-09-21T14:25:16.932Z,16.20
2023-09-21T14:27:46.326Z,16.30
2023-09-21T14:30:16.955Z,16.30
2023-09-21T14:32:48.235Z,16.20
2023-09-21T14:35:16.566Z,16.20
2023-09-21T14:37:44.645Z,16.10
2023-09-21T14:40:13.545Z,16.20
2023-09-21T14:42:41.728Z,16.10
2023-09-21T14:45:12.327Z,16.10
2023-09-21T14:47:40.653Z,16.10
2023-09-21T14:50:10.622Z,16.20
2023-09-21T14:52:38.860Z,16.20
2023-09-21T14:55:07.624Z,16.30
2023-09-21T14:57:35.709Z,16.20
2023-09-21T15:00:08.144Z,16.20
2023-09-21T15:02:38.394Z,16.20
2023-09-21T15:05:09.788Z,16.30
2023-09-21T15:07:38.567Z,16.40
2023-09-21T15:10:07.390Z,16.30
2023-09-21T15:12:36.156Z,16.20
2023-09-21T15:15:06.487Z,16.40
2023-09-21T15:17:34.959Z,16.50
2023-09-21T15:20:06.062Z,16.30
2023-09-21T15:22:34.237Z,16.30
2023-09-21T15:25:02.431Z,16.30
2023-09-21T15:27:32.194Z,16.30
2023-09-21T15:30:00.550Z,16.40
2023-09-21T15:32:29.631Z,16.30
2023-09-21T15:34:57.902Z,16.20
2023-09-21T15:37:28.309Z,16.20
2023-09-21T15:39:56.937Z,16.20
2023-09-21T15:42:25.405Z,16.20
2023-09-21T15:44:53.485Z,16.20
2023-09-21T15:47:21.539Z,16.20
2023-09-21T15:49:50.005Z,16.20
2023-09-21T15:52:18.307Z,16.20
2023-09-21T15:54:47.743Z,16.20
2023-09-21T15:57:16.165Z,16.20
2023-09-21T15:59:44.300Z,16.40
2023-09-21T16:02:15.189Z,16.40
2023-09-21T16:04:43.759Z,16.40
2023-09-21T16:07:11.766Z,16.40
2023-09-21T16:09:40.891Z,16.40
2023-09-21T16:12:10.818Z,16.40
2023-09-21T16:14:39.078Z,16.30
2023-09-21T16:17:07.052Z,16.20
2023-09-21T16:19:35.154Z,16.20
2023-09-21T16:22:03.376Z,16.30
2023-09-21T16:24:31.400Z,16.20
2023-09-21T16:27:00.208Z,16.20
2023-09-21T16:29:29.750Z,16.20
2023-09-21T16:31:57.861Z,16.20
2023-09-21T16:34:26.315Z,16.10
2023-09-21T16:36:54.404Z,16.10
2023-09-21T16:39:23.203Z,16.10
2023-09-21T16:41:51.685Z,16.20
2023-09-21T16:44:20.451Z,16.30
2023-09-21T16:46:51.919Z,16.30
2023-09-21T16:49:20.067Z,16.30
2023-09-21T16:51:48.341Z,16.30
2023-09-21T16:54:16.423Z,16.20
2023-09-21T16:56:44.434Z,16.20
2023-09-21T16:59:13.321Z,16.10
2023-09-21T17:01:41.618Z,16.10
2023-09-21T17:04:11.666Z,16.00
2023-09-21T17:06:40.328Z,16.00
2023-09-21T17:09:09.484Z,16.00
2023-09-21T17:11:38.240Z,16.00
2023-09-21T17:14:06.828Z,16.00
2023-09-21T17:16:35.382Z,16.00
2023-09-21T17:19:07.467Z,16.00
2023-09-21T17:21:38.310Z,16.00
2023-09-21T17:24:07.175Z,16.10
2023-09-21T17:26:35.640Z,16.10
2023-09-21T17:29:03.999Z,16.10
2023-09-21T17:31:33.138Z,16.00
2023-09-21T17:34:02.420Z,16.10
2023-09-21T17:36:31.345Z,16.10
2023-09-21T17:39:01.663Z,16.10
2023-09-21T17:41:30.438Z,16.10
2023-09-21T17:43:58.759Z,16.10
2023-09-21T17:46:27.418Z,16.10
2023-09-21T17:48:57.095Z,16.10
2023-09-21T17:51:27.888Z,16.10
2023-09-21T17:53:56.836Z,16.10
2023-09-21T17:56:27.280Z,16.10
2023-09-21T17:58:55.935Z,16.10
2023-09-21T18:01:27.212Z,16.00
2023-09-21T18:03:56.644Z,16.10
2023-09-21T18:06:25.240Z,16.10
2023-09-21T18:08:53.797Z,16.10
2023-09-21T18:11:22.437Z,16.00
2023-09-21T18:13:52.939Z,16.00
2023-09-21T18:16:21.597Z,16.00
2023-09-21T18:18:50.468Z,16.00
2023-09-21T18:21:19.048Z,16.00
2023-09-21T18:23:48.872Z,16.00
2023-09-21T18:26:20.178Z,16.00
2023-09-21T18:28:49.573Z,16.00
2023-09-21T18:31:19.915Z,16.00
2023-09-21T18:33:50.275Z,16.00
2023-09-21T18:36:19.371Z,16.00
2023-09-21T18:38:48.800Z,16.00
2023-09-21T18:41:19.496Z,16.00
2023-09-21T18:43:49.110Z,16.00
2023-09-21T18:46:19.715Z,16.00
2023-09-21T18:48:48.924Z,16.00
2023-09-21T18:51:17.853Z,15.90
2023-09-21T18:53:46.934Z,16.00
2023-09-21T18:56:16.721Z,16.00
2023-09-21T18:58:46.249Z,15.90
2023-09-21T19:01:15.140Z,15.90
2023-09-21T19:03:45.452Z,15.90
2023-09-21T19:06:15.700Z,15.90
2023-09-21T19:08:44.901Z,16.00
2023-09-21T19:11:13.733Z,15.90
2023-09-21T19:13:41.733Z,15.90
2023-09-21T19:16:12.525Z,15.90
2023-09-21T19:18:41.715Z,15.80
2023-09-21T19:21:13.143Z,15.80
2023-09-21T19:23:41.799Z,15.90
2023-09-21T19:26:09.991Z,15.80
2023-09-21T19:28:38.087Z,15.80
2023-09-21T19:31:06.787Z,15.90
2023-09-21T19:33:34.951Z,15.80
2023-09-21T19:36:02.949Z,15.80
2023-09-21T19:38:32.534Z,15.90
2023-09-21T19:41:00.658Z,15.80
2023-09-21T19:43:28.976Z,15.80
2023-09-21T19:45:57.620Z,15.80
2023-09-21T19:48:25.836Z,15.80
2023-09-21T19:50:54.951Z,15.80
2023-09-21T19:53:25.148Z,15.80
2023-09-21T19:55:55.013Z,15.80
2023-09-21T19:58:23.004Z,15.80
2023-09-21T20:00:51.403Z,15.80
2023-09-21T20:03:19.977Z,15.80
2023-09-21T20:05:48.472Z,15.80
2023-09-21T20:08:16.560Z,15.80
2023-09-21T20:10:44.738Z,15.80
2023-09-21T20:13:14.252Z,15.80
2023-09-21T20:15:42.530Z,15.90
2023-09-21T20:18:10.758Z,15.90
2023-09-21T20:20:38.850Z,15.90
2023-09-21T20:23:07.157Z,15.90
2023-09-21T20:25:38.499Z,15.90
2023-09-21T20:28:07.025Z,15.90
2023-09-21T20:30:36.583Z,15.90
2023-09-21T20:33:05.404Z,15.90
2023-09-21T20:35:33.808Z,15.90
2023-09-21T20:38:01.842Z,15.90
2023-09-21T20:40:29.992Z,15.90
2023-09-21T20:42:58.446Z,15.90
2023-09-21T20:45:26.834Z,15.90
2023-09-21T20:47:56.695Z,15.90
2023-09-21T20:50:25.142Z,15.90
2023-09-21T20:52:53.474Z,15.90
2023-09-21T20:55:22.170Z,15.90
2023-09-21T20:57:50.486Z,15.90
2023-09-21T21:00:21.085Z,15.90
2023-09-21T21:02:49.657Z,15.90
2023-09-21T21:05:22.468Z,15.90
2023-09-21T21:07:51.127Z,15.90
2023-09-21T21:10:19.258Z,15.90
2023-09-21T21:12:47.310Z,15.90
2023-09-21T21:15:15.654Z,15.90
2023-09-21T21:17:44.168Z,15.90
2023-09-21T21:20:13.330Z,15.90
2023-09-21T21:22:42.838Z,15.90
2023-09-21T21:25:12.332Z,15.80
2023-09-21T21:27:40.703Z,15.80
2023-09-21T21:30:09.907Z,15.80
2023-09-21T21:32:37.837Z,15.80
2023-09-21T21:35:06.901Z,15.80
2023-09-21T21:37:35.117Z,15.80
2023-09-21T21:40:05.287Z,15.90
2023-09-21T21:42:33.297Z,15.80
2023-09-21T21:45:01.517Z,15.80
2023-09-21T21:47:30.286Z,15.80
2023-09-21T21:49:58.348Z,15.70
2023-09-21T21:52:26.478Z,15.70
2023-09-21T21:54:54.929Z,15.70
2023-09-21T21:57:25.027Z,15.70
2023-09-21T21:59:53.242Z,15.70
2023-09-21T22:02:21.248Z,15.70
2023-09-21T22:04:50.991Z,15.70
2023-09-21T22:07:19.987Z,15.70
2023-09-21T22:09:48.616Z,15.70
2023-09-21T22:12:18.783Z,15.70
2023-09-21T22:14:48.466Z,15.70
2023-09-21T22:17:16.748Z,15.60
2023-09-21T22:19:44.934Z,15.60
2023-09-21T22:22:13.411Z,15.60
2023-09-21T22:24:41.731Z,15.60
2023-09-21T22:27:10.088Z,15.60
2023-09-21T22:29:38.158Z,15.60
2023-09-21T22:32:07.527Z,15.60
2023-09-21T22:34:35.923Z,15.60
2023-09-21T22:37:04.074Z,15.60
2023-09-21T22:39:34.047Z,15.60
2023-09-21T22:42:02.435Z,15.60
2023-09-21T22:44:30.529Z,15.60
2023-09-21T22:46:58.474Z,15.60
2023-09-21T22:49:28.600Z,15.60
2023-09-21T22:51:57.073Z,15.60
2023-09-21T22:54:25.350Z,15.60
2023-09-21T22:56:53.515Z,15.60
2023-09-21T22:59:22.394Z,15.60
2023-09-21T23:01:50.455Z,15.60
2023-09-21T23:04:18.942Z,15.60
2023-09-21T23:06:48.766Z,15.50
2023-09-21T23:09:18.163Z,15.50
2023-09-21T23:11:46.480Z,15.50
2023-09-21T23:14:14.460Z,15.50
2023-09-21T23:16:42.906Z,15.40
2023-09-21T23:19:11.159Z,15.50
2023-09-21T23:21:39.294Z,15.50
2023-09-21T23:24:11.864Z,15.50
2023-09-21T23:26:40.781Z,15.40
2023-09-21T23:29:09.784Z,15.40
2023-09-21T23:31:37.850Z,15.50
2023-09-21T23:34:06.829Z,15.50
2023-09-21T23:36:36.922Z,15.40
2023-09-21T23:39:13.786Z,15.40
2023-09-21T23:41:43.398Z,15.40
2023-09-21T23:44:13.834Z,15.40
2023-09-21T23:46:43.661Z,15.40
2023-09-21T23:49:11.730Z,15.40
2023-09-21T23:51:39.943Z,15.30
2023-09-21T23:54:08.717Z,15.40
2023-09-21T23:56:36.723Z,15.30
2023-09-21T23:59:06.176Z,15.20
